createdAt,value
2023-03-06T00:01:08.728Z,99630.59
2023-03-06T00:03:36.938Z,99602.78
2023-03-06T00:06:05.589Z,99631.97
2023-03-06T00:08:32.786Z,99642.44
2023-03-06T00:11:00.255Z,99643.56
2023-03-06T00:13:31.102Z,99642.13
2023-03-06T00:16:01.171Z,99644.91
2023-03-06T00:18:29.416Z,99627.28
2023-03-06T00:20:56.679Z,99628.63
2023-03-06T00:23:26.111Z,99640.47
2023-03-06T00:25:53.221Z,99640.47
2023-03-06T00:28:20.287Z,99623.09
2023-03-06T00:30:48.706Z,99632.47
2023-03-06T00:33:16.425Z,99648.47
2023-03-06T00:35:43.545Z,99648.41
2023-03-06T00:38:13.231Z,99650.06
2023-03-06T00:40:40.748Z,99654.75
2023-03-06T00:43:07.957Z,99623.03
2023-03-06T00:45:36.109Z,99619.69
2023-03-06T00:48:03.300Z,99650.25
2023-03-06T00:50:30.566Z,99636.19
2023-03-06T00:53:00.222Z,99631.19
2023-03-06T00:55:27.517Z,99630.63
2023-03-06T00:57:54.672Z,99618.19
2023-03-06T01:00:22.046Z,99615.72
2023-03-06T01:02:50.219Z,99612.97
2023-03-06T01:05:17.471Z,99613.00
2023-03-06T01:07:45.165Z,99599.81
2023-03-06T01:10:12.625Z,99599.34
2023-03-06T01:12:41.268Z,99592.72
2023-03-06T01:15:09.625Z,99590.53
2023-03-06T01:17:36.871Z,99594.72
2023-03-06T01:20:05.327Z,99621.72
2023-03-06T01:22:32.827Z,99614.00
2023-03-06T01:25:00.088Z,99599.97
2023-03-06T01:27:27.277Z,99599.69
2023-03-06T01:29:54.569Z,99594.44
2023-03-06T01:32:22.125Z,99611.50
2023-03-06T01:34:50.289Z,99604.94
2023-03-06T01:37:17.821Z,99602.16
2023-03-06T01:39:45.183Z,99609.63
2023-03-06T01:42:12.459Z,99601.91
2023-03-06T01:45:04.447Z,99582.09
2023-03-06T01:47:31.813Z,99590.09
2023-03-06T01:50:01.350Z,99584.31
2023-03-06T01:52:43.457Z,99609.66
2023-03-06T01:55:26.459Z,99611.03
2023-03-06T01:57:57.979Z,99592.03
2023-03-06T02:00:29.739Z,99599.22
2023-03-06T02:03:01.690Z,99603.91
2023-03-06T02:05:29.050Z,99590.09
2023-03-06T02:07:57.419Z,99602.25
2023-03-06T02:10:25.190Z,99600.03
2023-03-06T02:12:53.349Z,99582.66
2023-03-06T02:15:23.023Z,99610.22
2023-03-06T02:17:51.501Z,99617.94
2023-03-06T02:20:48.894Z,99598.94
2023-03-06T02:23:45.933Z,99617.13
2023-03-06T02:26:15.657Z,99599.19
2023-03-06T02:28:43.273Z,99597.53
2023-03-06T02:31:27.841Z,99575.50
2023-03-06T02:34:04.990Z,99614.34
2023-03-06T02:36:45.918Z,99612.97
2023-03-06T02:39:13.797Z,99605.53
2023-03-06T02:41:41.152Z,99586.22
2023-03-06T02:44:08.886Z,99598.63
2023-03-06T02:46:36.304Z,99601.09
2023-03-06T02:49:03.520Z,99577.91
2023-03-06T02:51:32.086Z,99602.41
2023-03-06T02:53:59.305Z,99591.13
2023-03-06T02:56:26.525Z,99583.91
2023-03-06T02:58:53.759Z,99603.19
2023-03-06T03:01:21.391Z,99602.88
2023-03-06T03:03:48.492Z,99577.47
2023-03-06T03:06:16.360Z,99622.41
2023-03-06T03:08:44.420Z,99603.69
2023-03-06T03:11:12.740Z,99600.94
2023-03-06T03:13:43.576Z,99586.34
2023-03-06T03:16:16.759Z,99585.00
2023-03-06T03:18:44.726Z,99611.16
2023-03-06T03:21:17.430Z,99613.38
2023-03-06T03:23:47.055Z,99578.91
2023-03-06T03:26:20.686Z,99604.88
2023-03-06T03:28:54.676Z,99584.78
2023-03-06T03:31:22.769Z,99597.44
2023-03-06T03:33:50.464Z,99588.84
2023-03-06T03:36:19.688Z,99594.88
2023-03-06T03:38:47.907Z,99602.81
2023-03-06T03:41:15.444Z,99576.06
2023-03-06T03:43:43.240Z,99574.94
2023-03-06T03:46:11.705Z,99587.59
2023-03-06T03:48:39.455Z,99585.31
2023-03-06T03:51:13.411Z,99598.03
2023-03-06T03:53:45.813Z,99604.84
2023-03-06T03:56:16.061Z,99597.44
2023-03-06T03:58:52.690Z,99598.41
2023-03-06T04:01:20.210Z,99572.50
2023-03-06T04:03:47.662Z,99580.25
2023-03-06T04:06:16.145Z,99601.75
2023-03-06T04:08:44.483Z,99580.00
2023-03-06T04:11:12.075Z,99597.31
2023-03-06T04:13:39.830Z,99582.47
2023-03-06T04:16:07.714Z,99612.16
2023-03-06T04:18:37.049Z,99616.81
2023-03-06T04:21:06.653Z,99602.16
2023-03-06T04:23:34.289Z,99617.88
2023-03-06T04:26:01.922Z,99604.88
2023-03-06T04:28:29.416Z,99605.63
2023-03-06T04:30:58.024Z,99603.97
2023-03-06T04:33:26.083Z,99612.72
2023-03-06T04:35:55.256Z,99609.47
2023-03-06T04:38:26.874Z,99621.03
2023-03-06T04:40:53.997Z,99618.50
2023-03-06T04:43:21.477Z,99604.44
2023-03-06T04:45:52.137Z,99601.13
2023-03-06T04:48:19.426Z,99614.66
2023-03-06T04:50:47.545Z,99633.69
2023-03-06T04:53:16.303Z,99598.06
2023-03-06T04:55:43.470Z,99621.81
2023-03-06T04:58:12.537Z,99620.19
2023-03-06T05:00:40.040Z,99620.75
2023-03-06T05:03:07.125Z,99611.34
2023-03-06T05:05:34.287Z,99609.69
2023-03-06T05:08:01.585Z,99597.59
2023-03-06T05:10:31.392Z,99625.16
2023-03-06T05:12:58.744Z,99610.63
2023-03-06T05:15:25.869Z,99598.22
2023-03-06T05:17:52.965Z,99619.75
2023-03-06T05:20:20.237Z,99611.75
2023-03-06T05:22:48.568Z,99599.91
2023-03-06T05:25:16.884Z,99613.25
2023-03-06T05:27:44.022Z,99594.53
2023-03-06T05:30:14.525Z,99620.47
2023-03-06T05:32:42.011Z,99609.97
2023-03-06T05:35:16.004Z,99626.31
2023-03-06T05:37:43.251Z,99587.97
2023-03-06T05:40:11.596Z,99623.84
2023-03-06T05:42:39.464Z,99617.78
2023-03-06T05:45:07.141Z,99614.75
2023-03-06T05:47:34.273Z,99616.19
2023-03-06T05:50:01.361Z,99617.03
2023-03-06T05:52:29.202Z,99620.09
2023-03-06T05:54:56.253Z,99613.53
2023-03-06T05:57:25.139Z,99610.78
2023-03-06T05:59:52.248Z,99605.06
2023-03-06T06:02:20.005Z,99619.38
2023-03-06T06:04:47.439Z,99588.78
2023-03-06T06:07:16.380Z,99621.94
2023-03-06T06:09:45.771Z,99602.66
2023-03-06T06:12:13.991Z,99605.13
2023-03-06T06:14:45.175Z,99621.41
2023-03-06T06:17:12.822Z,99612.91
2023-03-06T06:19:39.918Z,99593.06
2023-03-06T06:22:07.265Z,99606.84
2023-03-06T06:24:34.472Z,99615.38
2023-03-06T06:27:03.838Z,99618.44
2023-03-06T06:29:32.724Z,99622.56
2023-03-06T06:32:01.206Z,99638.53
2023-03-06T06:34:28.688Z,99604.66
2023-03-06T06:36:56.140Z,99594.44
2023-03-06T06:39:24.700Z,99608.50
2023-03-06T06:42:05.943Z,99602.97
2023-03-06T06:44:40.262Z,99617.34
2023-03-06T06:47:25.063Z,99636.91
2023-03-06T06:49:54.985Z,99614.31
2023-03-06T06:52:23.818Z,99626.69
2023-03-06T06:54:51.672Z,99613.22
2023-03-06T06:57:18.900Z,99606.63
2023-03-06T06:59:47.084Z,99623.16
2023-03-06T07:02:16.301Z,99627.56
2023-03-06T07:05:00.198Z,99601.94
2023-03-06T07:07:32.009Z,99634.75
2023-03-06T07:09:59.311Z,99632.28
2023-03-06T07:12:26.398Z,99600.31
2023-03-06T07:14:53.784Z,99614.38
2023-03-06T07:17:20.976Z,99633.94
2023-03-06T07:19:48.679Z,99630.38
2023-03-06T07:22:15.862Z,99600.59
2023-03-06T07:24:43.086Z,99640.84
2023-03-06T07:27:10.221Z,99621.25
2023-03-06T07:29:37.363Z,99632.25
2023-03-06T07:32:04.776Z,99630.31
2023-03-06T07:34:32.093Z,99647.41
2023-03-06T07:36:59.290Z,99649.06
2023-03-06T07:39:28.504Z,99662.91
2023-03-06T07:41:56.781Z,99636.41
2023-03-06T07:44:23.801Z,99655.69
2023-03-06T07:46:51.206Z,99607.19
2023-03-06T07:49:18.824Z,99606.63
2023-03-06T07:51:46.432Z,99622.59
2023-03-06T07:54:13.924Z,99643.00
2023-03-06T07:56:41.211Z,99650.41
2023-03-06T07:59:08.295Z,99642.41
2023-03-06T08:01:36.546Z,99657.03
2023-03-06T08:04:04.106Z,99639.66
2023-03-06T08:06:32.311Z,99656.97
2023-03-06T08:09:00.141Z,99662.78
2023-03-06T08:11:30.094Z,99655.09
2023-03-06T08:13:58.197Z,99662.00
2023-03-06T08:16:28.980Z,99663.06
2023-03-06T08:18:57.190Z,99658.91
2023-03-06T08:21:27.436Z,99665.25
2023-03-06T08:23:55.115Z,99674.09
2023-03-06T08:26:27.993Z,99691.25
2023-03-06T08:28:57.592Z,99660.34
2023-03-06T08:31:38.758Z,99674.16
2023-03-06T08:34:08.339Z,99673.28
2023-03-06T08:36:35.843Z,99639.03
2023-03-06T08:39:04.408Z,99692.81
2023-03-06T08:41:32.767Z,99677.91
2023-03-06T08:44:00.256Z,99657.72
2023-03-06T08:46:30.383Z,99667.94
2023-03-06T08:48:57.794Z,99673.25
2023-03-06T08:51:25.178Z,99679.03
2023-03-06T08:53:53.092Z,99662.22
2023-03-06T08:56:31.873Z,99680.69
2023-03-06T08:59:01.285Z,99668.75
2023-03-06T09:01:32.718Z,99665.38
2023-03-06T09:04:03.807Z,99670.63
2023-03-06T09:06:33.637Z,99667.84
2023-03-06T09:09:01.184Z,99691.25
2023-03-06T09:11:28.852Z,99661.47
2023-03-06T09:13:57.299Z,99683.56
2023-03-06T09:16:25.154Z,99663.69
2023-03-06T09:18:54.189Z,99686.81
2023-03-06T09:21:22.619Z,99681.78
2023-03-06T09:23:49.940Z,99696.91
2023-03-06T09:26:18.115Z,99694.91
2023-03-06T09:28:45.793Z,99697.97
2023-03-06T09:31:16.233Z,99684.69
2023-03-06T09:33:43.599Z,99684.97
2023-03-06T09:36:15.978Z,99686.53
2023-03-06T09:38:43.538Z,99708.31
2023-03-06T09:41:31.853Z,99701.38
2023-03-06T09:44:18.077Z,99686.25
2023-03-06T09:47:13.650Z,99686.69
2023-03-06T09:50:05.785Z,99717.50
2023-03-06T09:52:46.137Z,99699.13
2023-03-06T09:55:20.865Z,99723.22
2023-03-06T09:57:53.713Z,99718.78
2023-03-06T10:00:27.066Z,99704.44
2023-03-06T10:03:06.438Z,99720.41
2023-03-06T10:05:40.580Z,99736.25
2023-03-06T10:08:20.250Z,99743.16
2023-03-06T10:10:57.748Z,99720.72
2023-03-06T10:13:38.206Z,99717.91
2023-03-06T10:16:27.200Z,99746.97
2023-03-06T10:19:02.129Z,99728.16
2023-03-06T10:21:38.469Z,99740.22
2023-03-06T10:24:13.740Z,99732.31
2023-03-06T10:26:49.703Z,99744.75
2023-03-06T10:29:27.706Z,99737.25
2023-03-06T10:32:19.865Z,99749.81
2023-03-06T10:34:47.455Z,99745.53
2023-03-06T10:37:20.977Z,99763.75
2023-03-06T10:39:55.450Z,99741.03
2023-03-06T10:42:24.574Z,99743.19
2023-03-06T10:45:13.506Z,99741.81
2023-03-06T10:47:41.675Z,99791.13
2023-03-06T10:50:28.003Z,99757.78
2023-03-06T10:53:05.264Z,99793.19
2023-03-06T10:55:37.974Z,99776.31
2023-03-06T10:58:25.611Z,99769.69
2023-03-06T11:01:23.546Z,99737.63
2023-03-06T11:03:50.724Z,99799.28
2023-03-06T11:06:35.905Z,99773.91
2023-03-06T11:09:24.851Z,99780.75
2023-03-06T11:11:52.813Z,99786.38
2023-03-06T11:14:27.566Z,99762.69
2023-03-06T11:16:55.011Z,99792.16
2023-03-06T11:19:27.658Z,99784.06
2023-03-06T11:22:07.127Z,99795.69
2023-03-06T11:24:43.534Z,99804.78
2023-03-06T11:27:42.836Z,99808.72
2023-03-06T11:30:24.320Z,99797.06
2023-03-06T11:33:00.548Z,99791.34
2023-03-06T11:35:42.622Z,99779.53
2023-03-06T11:38:21.009Z,99795.00
2023-03-06T11:41:00.054Z,99821.16
2023-03-06T11:43:49.732Z,99800.66
2023-03-06T11:46:41.977Z,99801.03
2023-03-06T11:49:17.389Z,99809.16
2023-03-06T11:51:50.183Z,99794.75
2023-03-06T11:54:17.506Z,99800.94
2023-03-06T11:57:13.130Z,99807.16
2023-03-06T12:00:10.827Z,99820.16
2023-03-06T12:02:40.888Z,99828.19
2023-03-06T12:05:26.690Z,99833.59
2023-03-06T12:08:22.498Z,99848.63
2023-03-06T12:10:54.638Z,99829.09
2023-03-06T12:13:27.911Z,99833.13
2023-03-06T12:16:27.113Z,99826.41
2023-03-06T12:19:29.711Z,99836.59
2023-03-06T12:22:23.645Z,99834.94
2023-03-06T12:25:18.384Z,99805.56
2023-03-06T12:27:59.355Z,99829.97
2023-03-06T12:30:41.583Z,99828.47
2023-03-06T12:33:31.374Z,99825.38
2023-03-06T12:36:29.967Z,99820.13
2023-03-06T12:39:10.798Z,99855.13
2023-03-06T12:42:22.870Z,99837.34
2023-03-06T12:44:57.181Z,99832.00
2023-03-06T12:47:31.657Z,99822.25
2023-03-06T12:50:17.441Z,99828.94
2023-03-06T12:52:46.684Z,99836.44
2023-03-06T12:55:17.386Z,99819.16
2023-03-06T12:57:52.046Z,99814.78
2023-03-06T13:00:37.790Z,99852.31
2023-03-06T13:03:13.872Z,99838.47
2023-03-06T13:06:18.421Z,99847.50
2023-03-06T13:08:52.901Z,99862.16
2023-03-06T13:11:47.411Z,99849.56
2023-03-06T13:14:31.092Z,99854.06
2023-03-06T13:17:20.606Z,99842.91
2023-03-06T13:19:48.735Z,99840.97
2023-03-06T13:22:43.189Z,99854.75
2023-03-06T13:25:19.665Z,99847.88
2023-03-06T13:27:53.272Z,99851.13
2023-03-06T13:30:29.374Z,99862.84
2023-03-06T13:32:58.998Z,99844.53
2023-03-06T13:35:29.827Z,99872.47
2023-03-06T13:37:58.416Z,99863.63
2023-03-06T13:40:35.809Z,99849.53
2023-03-06T13:43:12.418Z,99864.22
2023-03-06T13:45:44.456Z,99849.53
2023-03-06T13:48:43.134Z,99856.91
2023-03-06T13:51:24.064Z,99868.09
2023-03-06T13:54:20.126Z,99866.47
2023-03-06T13:57:07.874Z,99878.84
2023-03-06T13:59:52.352Z,99871.00
2023-03-06T14:03:01.771Z,99886.91
2023-03-06T14:05:51.798Z,99892.06
2023-03-06T14:08:23.114Z,99886.97
2023-03-06T14:11:05.688Z,99885.69
2023-03-06T14:13:45.440Z,99898.81
2023-03-06T14:16:48.681Z,99889.22
2023-03-06T14:19:19.337Z,99899.00
2023-03-06T14:21:56.630Z,99903.66
2023-03-06T14:24:43.759Z,99919.13
2023-03-06T14:27:20.303Z,99927.09
2023-03-06T14:29:49.933Z,99906.72
2023-03-06T14:32:22.089Z,99924.63
2023-03-06T14:34:50.122Z,99919.91
2023-03-06T14:37:24.718Z,99928.06
2023-03-06T14:39:52.824Z,99944.44
2023-03-06T14:42:21.241Z,99955.03
2023-03-06T14:44:59.827Z,99956.44
2023-03-06T14:47:28.453Z,99969.00
2023-03-06T14:50:32.929Z,99974.56
2023-03-06T14:53:20.224Z,99978.59
2023-03-06T14:55:56.054Z,99992.31
2023-03-06T14:59:00.646Z,99990.50
2023-03-06T15:01:45.673Z,99998.25
2023-03-06T15:04:19.496Z,100004.03
2023-03-06T15:06:47.993Z,100004.47
2023-03-06T15:09:24.676Z,100021.41
2023-03-06T15:12:20.990Z,100017.06
2023-03-06T15:14:58.579Z,100044.97
2023-03-06T15:17:29.970Z,100060.09
2023-03-06T15:19:59.528Z,100062.56
2023-03-06T15:22:30.651Z,100046.34
2023-03-06T15:25:30.266Z,100057.91
2023-03-06T15:28:02.602Z,100045.44
2023-03-06T15:30:37.715Z,100053.88
2023-03-06T15:33:22.669Z,100065.81
2023-03-06T15:35:58.885Z,100078.56
2023-03-06T15:38:46.935Z,100083.94
2023-03-06T15:41:28.357Z,100093.13
2023-03-06T15:43:58.410Z,100095.78
2023-03-06T15:46:25.837Z,100089.84
2023-03-06T15:48:56.839Z,100104.53
2023-03-06T15:51:24.807Z,100115.91
2023-03-06T15:53:55.020Z,100104.16
2023-03-06T15:56:29.642Z,100094.09
2023-03-06T15:58:58.553Z,100091.94
2023-03-06T16:01:26.022Z,100108.84
2023-03-06T16:03:53.303Z,100136.03
2023-03-06T16:06:24.435Z,100136.38
2023-03-06T16:08:52.936Z,100143.69
2023-03-06T16:11:32.489Z,100112.41
2023-03-06T16:14:02.735Z,100125.63
2023-03-06T16:16:36.735Z,100139.31
2023-03-06T16:19:14.015Z,100144.78
2023-03-06T16:21:47.772Z,100142.13
2023-03-06T16:24:16.501Z,100142.09
2023-03-06T16:26:46.605Z,100143.38
2023-03-06T16:29:25.189Z,100144.59
2023-03-06T16:31:52.852Z,100166.22
2023-03-06T16:34:20.075Z,100162.41
2023-03-06T16:36:49.363Z,100159.63
2023-03-06T16:39:19.410Z,100172.44
2023-03-06T16:41:46.704Z,100144.25
2023-03-06T16:44:14.129Z,100154.00
2023-03-06T16:46:47.192Z,100161.50
2023-03-06T16:49:20.748Z,100165.44
2023-03-06T16:51:48.422Z,100178.78
2023-03-06T16:54:15.731Z,100174.66
2023-03-06T16:56:43.251Z,100153.34
2023-03-06T16:59:11.227Z,100167.47
2023-03-06T17:01:43.138Z,100152.19
2023-03-06T17:04:11.898Z,100157.22
2023-03-06T17:06:39.804Z,100185.72
2023-03-06T17:09:07.268Z,100135.34
2023-03-06T17:11:36.414Z,100195.44
2023-03-06T17:14:03.867Z,100167.16
2023-03-06T17:16:31.065Z,100190.91
2023-03-06T17:18:58.360Z,100183.50
2023-03-06T17:21:27.069Z,100173.72
2023-03-06T17:23:54.539Z,100205.34
2023-03-06T17:26:21.946Z,100189.53
2023-03-06T17:28:49.410Z,100159.88
2023-03-06T17:31:26.801Z,100195.25
2023-03-06T17:33:59.571Z,100211.88
2023-03-06T17:36:31.239Z,100214.09
2023-03-06T17:39:00.526Z,100214.63
2023-03-06T17:41:29.139Z,100210.75
2023-03-06T17:43:58.454Z,100202.81
2023-03-06T17:46:25.876Z,100218.53
2023-03-06T17:48:53.017Z,100201.06
2023-03-06T17:51:20.238Z,100224.84
2023-03-06T17:53:47.703Z,100220.38
2023-03-06T17:56:15.687Z,100227.88
2023-03-06T17:58:42.709Z,100217.59
2023-03-06T18:01:15.902Z,100224.16
2023-03-06T18:03:45.242Z,100211.19
2023-03-06T18:06:12.771Z,100209.81
2023-03-06T18:08:41.245Z,100222.75
2023-03-06T18:11:10.598Z,100229.91
2023-03-06T18:13:40.742Z,100225.44
2023-03-06T18:16:09.218Z,100230.78
2023-03-06T18:18:36.516Z,100239.84
2023-03-06T18:21:07.249Z,100223.88
2023-03-06T18:23:36.113Z,100248.81
2023-03-06T18:26:19.504Z,100220.66
2023-03-06T18:28:48.985Z,100222.56
2023-03-06T18:31:33.708Z,100243.59
2023-03-06T18:34:02.947Z,100259.78
2023-03-06T18:36:32.054Z,100260.06
2023-03-06T18:39:00.991Z,100239.66
2023-03-06T18:41:28.103Z,100245.66
2023-03-06T18:43:56.700Z,100266.88
2023-03-06T18:46:26.306Z,100268.88
2023-03-06T18:48:54.809Z,100260.25
2023-03-06T18:51:22.013Z,100259.44
2023-03-06T18:53:49.221Z,100256.13
2023-03-06T18:56:22.016Z,100271.69
2023-03-06T18:58:51.324Z,100274.47
2023-03-06T19:01:18.932Z,100266.41
2023-03-06T19:03:46.794Z,100282.03
2023-03-06T19:06:17.174Z,100288.97
2023-03-06T19:08:44.835Z,100284.34
2023-03-06T19:11:14.641Z,100267.88
2023-03-06T19:13:42.855Z,100281.91
2023-03-06T19:16:17.593Z,100285.97
2023-03-06T19:18:44.947Z,100280.38
2023-03-06T19:21:18.510Z,100283.47
2023-03-06T19:23:46.371Z,100290.38
2023-03-06T19:26:14.050Z,100290.03
2023-03-06T19:28:42.781Z,100291.19
2023-03-06T19:31:11.099Z,100280.63
2023-03-06T19:33:38.305Z,100279.03
2023-03-06T19:36:07.090Z,100289.44
2023-03-06T19:38:34.382Z,100293.63
2023-03-06T19:41:03.922Z,100302.78
2023-03-06T19:43:31.234Z,100313.81
2023-03-06T19:45:58.788Z,100304.91
2023-03-06T19:48:25.891Z,100299.97
2023-03-06T19:50:52.956Z,100294.97
2023-03-06T19:53:20.187Z,100304.59
2023-03-06T19:55:47.318Z,100276.28
2023-03-06T19:58:14.511Z,100297.66
2023-03-06T20:00:42.086Z,100298.75
2023-03-06T20:03:09.306Z,100301.19
2023-03-06T20:05:36.686Z,100296.53
2023-03-06T20:08:04.341Z,100304.31
2023-03-06T20:10:31.420Z,100292.13
2023-03-06T20:12:58.843Z,100306.72
2023-03-06T20:15:28.173Z,100293.94
2023-03-06T20:17:56.796Z,100278.63
2023-03-06T20:20:24.925Z,100315.41
2023-03-06T20:22:51.988Z,100303.31
2023-03-06T20:25:20.589Z,100312.16
2023-03-06T20:27:47.732Z,100299.44
2023-03-06T20:30:14.962Z,100311.22
2023-03-06T20:32:43.293Z,100312.59
2023-03-06T20:35:10.529Z,100303.50
2023-03-06T20:37:38.975Z,100301.28
2023-03-06T20:40:08.728Z,100333.69
2023-03-06T20:42:36.069Z,100328.69
2023-03-06T20:45:03.305Z,100327.84
2023-03-06T20:47:31.828Z,100312.06
2023-03-06T20:49:58.945Z,100337.22
2023-03-06T20:52:26.109Z,100315.06
2023-03-06T20:54:53.290Z,100339.38
2023-03-06T20:57:20.398Z,100329.69
2023-03-06T20:59:47.485Z,100327.69
2023-03-06T21:02:15.115Z,100335.66
2023-03-06T21:04:42.508Z,100336.47
2023-03-06T21:07:09.585Z,100329.53
2023-03-06T21:09:38.121Z,100314.88
2023-03-06T21:12:06.242Z,100333.97
2023-03-06T21:14:33.329Z,100328.69
2023-03-06T21:17:01.398Z,100329.16
2023-03-06T21:19:28.523Z,100335.50
2023-03-06T21:21:55.782Z,100332.75
2023-03-06T21:24:22.904Z,100353.59
2023-03-06T21:26:51.403Z,100355.75
2023-03-06T21:29:18.624Z,100358.00
2023-03-06T21:31:45.865Z,100330.88
2023-03-06T21:34:13.275Z,100321.91
2023-03-06T21:36:40.492Z,100359.84
2023-03-06T21:39:07.652Z,100338.56
2023-03-06T21:41:35.136Z,100343.75
2023-03-06T21:44:05.439Z,100362.34
2023-03-06T21:46:35.548Z,100360.16
2023-03-06T21:49:04.858Z,100344.09
2023-03-06T21:51:32.610Z,100354.59
2023-03-06T21:53:59.692Z,100357.81
2023-03-06T21:56:28.559Z,100359.44
2023-03-06T21:58:56.626Z,100377.03
2023-03-06T22:01:26.810Z,100376.94
2023-03-06T22:03:54.228Z,100367.50
2023-03-06T22:06:25.290Z,100383.44
2023-03-06T22:08:54.287Z,100394.16
2023-03-06T22:11:23.196Z,100381.88
2023-03-06T22:13:53.316Z,100395.16
2023-03-06T22:16:21.062Z,100385.06
2023-03-06T22:18:50.413Z,100394.50
2023-03-06T22:21:20.134Z,100392.00
2023-03-06T22:23:50.594Z,100385.31
2023-03-06T22:26:18.306Z,100388.47
2023-03-06T22:28:45.627Z,100386.00
2023-03-06T22:31:15.830Z,100383.81
2023-03-06T22:33:43.666Z,100381.53
2023-03-06T22:36:13.706Z,100394.50
2023-03-06T22:38:43.288Z,100377.03
2023-03-06T22:41:12.334Z,100390.00
2023-03-06T22:43:39.760Z,100376.13
2023-03-06T22:46:09.840Z,100379.53
2023-03-06T22:48:37.113Z,100347.59
2023-03-06T22:51:09.536Z,100384.53
2023-03-06T22:53:37.617Z,100385.25
2023-03-06T22:56:08.491Z,100389.28
2023-03-06T22:58:39.604Z,100396.78
2023-03-06T23:01:08.778Z,100395.47
2023-03-06T23:03:37.975Z,100395.00
2023-03-06T23:06:09.282Z,100399.16
2023-03-06T23:08:36.363Z,100394.25
2023-03-06T23:11:09.043Z,100385.41
2023-03-06T23:13:55.543Z,100398.63
2023-03-06T23:16:41.604Z,100359.47
2023-03-06T23:19:27.355Z,100382.44
2023-03-06T23:22:14.525Z,100384.88
2023-03-06T23:25:00.862Z,100377.56
2023-03-06T23:27:29.523Z,100386.94
2023-03-06T23:29:59.177Z,100374.38
2023-03-06T23:32:26.517Z,100377.66
2023-03-06T23:34:53.788Z,100370.66
2023-03-06T23:37:20.879Z,100368.44
2023-03-06T23:39:48.496Z,100381.91
2023-03-06T23:42:15.579Z,100392.44
2023-03-06T23:44:43.025Z,100370.16
2023-03-06T23:47:10.558Z,100398.16
2023-03-06T23:49:37.863Z,100382.63
2023-03-06T23:52:05.118Z,100394.25
2023-03-06T23:54:34.460Z,100394.84
2023-03-06T23:57:01.624Z,100377.34
2023-03-06T23:59:28.981Z,100373.75
